Impacts TAF Board
For situational awareness. Not to be used for flight planning purposes.
IDs:

KCVG - Cincinnati Intl, KY, US

Issued at 0539 UTC 21 Oct 2018
Updated at 0739 UTC 21 Oct 2018
Potential Impact None Slight Moderate High
Time<<22/08Z 22/09Z 22/10Z 22/11Z 22/12Z 22/13Z 22/14Z 22/15Z 22/16Z 22/17Z 22/18Z 22/19Z 22/20Z
Type PRVL PRVL PRVL PRVL
VIS >6 >6 >6 >6
CIG -- -- -- --
Cover SKC SKC SKC SKC
FltCat VFR VFR VFR VFR
WX -- -- -- --
WDir 200 200 200 200
WSpd 4 4 4 4
WGst -- -- -- --
Raw TAF
KCVG 210539Z 2106/2212 32010KT P6SM SCT025
  FM211800 28006KT P6SM FEW035
  FM212300 20004KT P6SM SKC


METAR Board
Radar Display
Forecast Discussion
For situational awareness. Not to be used for flight planning purposes.